Ville-Marie, Canada
Current Conditions -  °F | °C
As of 5:00 PM on Monday 22 Dec 2014 (Local Time) from CYXR Reporting Station
Overcast Overcast  
Wind Chill: 13°   Ceiling: 800
Heat Index: 25°   Visibility: 9mi
Dew Point: 23°   Wind: 13mph
Humidity: 93%   Direction: 130°SE
Pressure: 30.14"   Gusts: NA
Location:  47.33°N, 79.43°W
Report Text: CYXR 222200Z AUTO 13011KT 9SM BKN008 OVC014 M04/M05 A3014 RMK SLP221
Loading
Personal Weather Stations






























Interactive Weather Map New forecast layout! Learn more

10-Day Weather Forecast

Advertisements
Track Severe Weather on mobile